Panama City Beach, FL

5:12 PM CDT on August 31, 2016 (GMT -0500)
The Cove | | Change Station

Elev 15 ft 30.16 °N, 85.65 °W | Updated 42 seconds ago

Overcast
Overcast
87.3 °F
Feels Like 98 °F
N
1.3
Wind Variable Wind from ENE
Gusts 2.5 mph

Today
High -- | Low -- °F
--% Chance of Precip.
Yesterday
High -- | Low -- °F
Precip. -- in
Pressure 29.82 in
Visibility 10.0 miles
Clouds Overcast 4600 ft
Heat Index 98 °F
Dew Point 76 °F
Humidity 70%
Rainfall 0.00 in
Snow Depth Not available.
6:19 AM 7:05 PM
Waning Crescent, 0% visible
METAR KPAM 312156Z COR 11006KT 10SM OVC046 29/24 A2982 RMK AO2A SLPNO T02930244 $ COR 2202
Pressure 29.82 in
Visibility 10.0 miles
Clouds Overcast 4600 ft
Heat Index 98 °F
Dew Point 76 °F
Humidity 70%
Rainfall 0.00 in
Snow Depth Not available.
6:19 AM 7:05 PM
Waning Crescent, 0% visible
METAR KPAM 312156Z COR 11006KT 10SM OVC046 29/24 A2982 RMK AO2A SLPNO T02930244 $ COR 2202

10-Day Weather Forecast

Almanac

Astronomy

Aug. 31, 2016 Rise Set
Actual Time
Civil Twilight
Nautical Twilight
Astronomical Twilight
Moon
Length of Visible Light
Length of Day
Tomorrow will be .
, % of the Moon is Illuminated

Today's Extremes

State Highs State Lows

Community

WunderPhotos

Upload Photos

1,936,200 photos uploaded!

WunderBlog® & News

Nearby

Air Quality

  Air Quality AQ Index Pollutant
Not available.

Snow Depth

Station Depth Elevation

Earthquake Activity

City Distance Mag. Time & Date
Minimum magnitude displayed is 2.5.

Coastal Water Temperatures

Place Temperature

Stations

Nearby Weather Stations

Station Location Temp. Windchill Dew Point Humidity Wind Precip. Elev Updated Type
                   

Watches & Warnings

There are currently no watches in effect.